sensor_id;sensor_type;location;lat;lon;timestamp;P1;durP1;ratioP1;P2;durP2;ratioP2
18881;SDS011;9573;50.948;11.600;2022-07-05T00:02:23;5.23;;;2.60;;
18881;SDS011;9573;50.948;11.600;2022-07-05T00:04:50;4.47;;;2.43;;
18881;SDS011;9573;50.948;11.600;2022-07-05T00:07:17;4.80;;;2.33;;
18881;SDS011;9573;50.948;11.600;2022-07-05T00:09:45;9.13;;;2.80;;
18881;SDS011;9573;50.948;11.600;2022-07-05T00:12:12;8.13;;;3.33;;
18881;SDS011;9573;50.948;11.600;2022-07-05T00:14:42;9.00;;;3.00;;
18881;SDS011;9573;50.948;11.600;2022-07-05T00:17:10;12.27;;;3.47;;
18881;SDS011;9573;50.948;11.600;2022-07-05T00:19:38;10.80;;;2.80;;
18881;SDS011;9573;50.948;11.600;2022-07-05T00:22:06;10.07;;;2.87;;
18881;SDS011;9573;50.948;11.600;2022-07-05T00:24:34;4.80;;;2.63;;
18881;SDS011;9573;50.948;11.600;2022-07-05T00:27:01;5.87;;;2.67;;
18881;SDS011;9573;50.948;11.600;2022-07-05T00:29:29;5.90;;;2.77;;
18881;SDS011;9573;50.948;11.600;2022-07-05T00:31:58;6.13;;;3.53;;
18881;SDS011;9573;50.948;11.600;2022-07-05T00:34:25;5.20;;;2.90;;
18881;SDS011;9573;50.948;11.600;2022-07-05T00:36:52;9.77;;;2.93;;
18881;SDS011;9573;50.948;11.600;2022-07-05T00:39:19;9.20;;;2.90;;
18881;SDS011;9573;50.948;11.600;2022-07-05T00:41:46;8.27;;;2.70;;
18881;SDS011;9573;50.948;11.600;2022-07-05T00:44:13;4.63;;;2.70;;
18881;SDS011;9573;50.948;11.600;2022-07-05T00:46:41;6.80;;;2.73;;
18881;SDS011;9573;50.948;11.600;2022-07-05T00:49:11;7.80;;;2.83;;
18881;SDS011;9573;50.948;11.600;2022-07-05T00:51:38;7.97;;;2.70;;
18881;SDS011;9573;50.948;11.600;2022-07-05T00:54:06;5.50;;;2.50;;
18881;SDS011;9573;50.948;11.600;2022-07-05T00:56:33;6.63;;;2.50;;
18881;SDS011;9573;50.948;11.600;2022-07-05T00:59:01;8.57;;;2.67;;
18881;SDS011;9573;50.948;11.600;2022-07-05T01:01:28;5.10;;;2.30;;
18881;SDS011;9573;50.948;11.600;2022-07-05T01:03:55;4.20;;;2.43;;
18881;SDS011;9573;50.948;11.600;2022-07-05T01:06:24;3.90;;;2.50;;
18881;SDS011;9573;50.948;11.600;2022-07-05T01:08:52;3.57;;;2.40;;
18881;SDS011;9573;50.948;11.600;2022-07-05T01:11:19;8.50;;;2.40;;
18881;SDS011;9573;50.948;11.600;2022-07-05T01:13:46;6.77;;;2.40;;
18881;SDS011;9573;50.948;11.600;2022-07-05T01:16:14;5.50;;;2.57;;
18881;SDS011;9573;50.948;11.600;2022-07-05T01:18:41;3.87;;;2.20;;
18881;SDS011;9573;50.948;11.600;2022-07-05T01:21:10;8.40;;;2.40;;
18881;SDS011;9573;50.948;11.600;2022-07-05T01:23:41;4.37;;;2.40;;
18881;SDS011;9573;50.948;11.600;2022-07-05T01:26:08;10.33;;;2.60;;
18881;SDS011;9573;50.948;11.600;2022-07-05T01:28:36;5.20;;;2.50;;
18881;SDS011;9573;50.948;11.600;2022-07-05T01:31:03;5.10;;;2.30;;
18881;SDS011;9573;50.948;11.600;2022-07-05T01:33:30;4.27;;;2.30;;
18881;SDS011;9573;50.948;11.600;2022-07-05T01:35:57;5.77;;;2.40;;
18881;SDS011;9573;50.948;11.600;2022-07-05T01:38:25;5.40;;;2.50;;
18881;SDS011;9573;50.948;11.600;2022-07-05T01:40:53;4.17;;;2.60;;
18881;SDS011;9573;50.948;11.600;2022-07-05T01:43:21;4.60;;;2.43;;
18881;SDS011;9573;50.948;11.600;2022-07-05T01:45:49;4.00;;;2.40;;
18881;SDS011;9573;50.948;11.600;2022-07-05T01:48:18;7.17;;;2.60;;
18881;SDS011;9573;50.948;11.600;2022-07-05T01:50:48;7.83;;;2.60;;
18881;SDS011;9573;50.948;11.600;2022-07-05T01:53:24;5.97;;;2.50;;
18881;SDS011;9573;50.948;11.600;2022-07-05T01:55:57;7.07;;;2.53;;
18881;SDS011;9573;50.948;11.600;2022-07-05T01:58:26;12.33;;;2.70;;
18881;SDS011;9573;50.948;11.600;2022-07-05T02:00:54;6.33;;;2.93;;
18881;SDS011;9573;50.948;11.600;2022-07-05T02:03:22;7.27;;;2.67;;
18881;SDS011;9573;50.948;11.600;2022-07-05T02:05:50;7.13;;;2.77;;
18881;SDS011;9573;50.948;11.600;2022-07-05T02:08:18;5.40;;;2.83;;
18881;SDS011;9573;50.948;11.600;2022-07-05T02:10:46;10.07;;;3.03;;
18881;SDS011;9573;50.948;11.600;2022-07-05T02:13:15;6.77;;;2.60;;
18881;SDS011;9573;50.948;11.600;2022-07-05T02:15:42;6.87;;;2.93;;
18881;SDS011;9573;50.948;11.600;2022-07-05T02:18:10;6.93;;;2.80;;
18881;SDS011;9573;50.948;11.600;2022-07-05T02:20:38;9.17;;;3.10;;
18881;SDS011;9573;50.948;11.600;2022-07-05T02:23:06;8.33;;;3.30;;
18881;SDS011;9573;50.948;11.600;2022-07-05T02:25:34;7.20;;;3.00;;
18881;SDS011;9573;50.948;11.600;2022-07-05T02:28:01;8.27;;;3.10;;
18881;SDS011;9573;50.948;11.600;2022-07-05T02:30:30;4.40;;;3.00;;
18881;SDS011;9573;50.948;11.600;2022-07-05T02:32:57;8.50;;;3.23;;
18881;SDS011;9573;50.948;11.600;2022-07-05T02:35:24;7.97;;;3.00;;
18881;SDS011;9573;50.948;11.600;2022-07-05T02:37:51;6.83;;;3.10;;
18881;SDS011;9573;50.948;11.600;2022-07-05T02:40:19;6.40;;;2.97;;
18881;SDS011;9573;50.948;11.600;2022-07-05T02:42:46;6.10;;;2.63;;
18881;SDS011;9573;50.948;11.600;2022-07-05T02:45:13;7.10;;;2.70;;
18881;SDS011;9573;50.948;11.600;2022-07-05T02:47:41;4.50;;;3.00;;
18881;SDS011;9573;50.948;11.600;2022-07-05T02:50:09;6.60;;;2.80;;
18881;SDS011;9573;50.948;11.600;2022-07-05T02:52:37;8.53;;;2.80;;
18881;SDS011;9573;50.948;11.600;2022-07-05T02:55:04;6.97;;;2.83;;
18881;SDS011;9573;50.948;11.600;2022-07-05T02:57:33;12.73;;;3.07;;
18881;SDS011;9573;50.948;11.600;2022-07-05T03:00:03;9.03;;;3.17;;
18881;SDS011;9573;50.948;11.600;2022-07-05T03:02:31;8.27;;;3.00;;
18881;SDS011;9573;50.948;11.600;2022-07-05T03:05:00;6.30;;;2.80;;
18881;SDS011;9573;50.948;11.600;2022-07-05T03:07:27;7.70;;;2.50;;
18881;SDS011;9573;50.948;11.600;2022-07-05T03:09:54;5.90;;;3.00;;
18881;SDS011;9573;50.948;11.600;2022-07-05T03:12:22;8.27;;;2.70;;
18881;SDS011;9573;50.948;11.600;2022-07-05T03:14:49;8.37;;;2.80;;
18881;SDS011;9573;50.948;11.600;2022-07-05T03:17:16;10.93;;;2.90;;
18881;SDS011;9573;50.948;11.600;2022-07-05T03:19:43;5.80;;;2.80;;
18881;SDS011;9573;50.948;11.600;2022-07-05T03:22:12;7.43;;;2.67;;
18881;SDS011;9573;50.948;11.600;2022-07-05T03:24:39;7.13;;;2.93;;
18881;SDS011;9573;50.948;11.600;2022-07-05T03:27:06;8.77;;;2.70;;
18881;SDS011;9573;50.948;11.600;2022-07-05T03:29:34;8.47;;;2.80;;
18881;SDS011;9573;50.948;11.600;2022-07-05T03:32:01;5.03;;;2.60;;
18881;SDS011;9573;50.948;11.600;2022-07-05T03:34:28;5.77;;;2.80;;
18881;SDS011;9573;50.948;11.600;2022-07-05T03:36:55;5.80;;;2.83;;
18881;SDS011;9573;50.948;11.600;2022-07-05T03:39:24;5.10;;;2.60;;
18881;SDS011;9573;50.948;11.600;2022-07-05T03:41:51;7.00;;;2.60;;
18881;SDS011;9573;50.948;11.600;2022-07-05T03:44:18;6.10;;;2.60;;
18881;SDS011;9573;50.948;11.600;2022-07-05T03:46:45;10.30;;;2.80;;
18881;SDS011;9573;50.948;11.600;2022-07-05T03:49:12;7.80;;;2.50;;
18881;SDS011;9573;50.948;11.600;2022-07-05T03:51:40;4.03;;;2.20;;
18881;SDS011;9573;50.948;11.600;2022-07-05T03:54:07;5.30;;;2.60;;
18881;SDS011;9573;50.948;11.600;2022-07-05T03:56:35;8.17;;;2.67;;
18881;SDS011;9573;50.948;11.600;2022-07-05T03:59:02;8.70;;;2.80;;
18881;SDS011;9573;50.948;11.600;2022-07-05T04:01:29;7.27;;;2.60;;
18881;SDS011;9573;50.948;11.600;2022-07-05T04:03:57;7.53;;;2.87;;
18881;SDS011;9573;50.948;11.600;2022-07-05T04:06:24;10.47;;;2.93;;
18881;SDS011;9573;50.948;11.600;2022-07-05T04:08:51;8.23;;;3.40;;
18881;SDS011;9573;50.948;11.600;2022-07-05T04:11:18;11.90;;;3.40;;
18881;SDS011;9573;50.948;11.600;2022-07-05T04:13:47;8.03;;;3.47;;
18881;SDS011;9573;50.948;11.600;2022-07-05T04:16:14;9.93;;;3.33;;
18881;SDS011;9573;50.948;11.600;2022-07-05T04:18:41;9.00;;;3.60;;
18881;SDS011;9573;50.948;11.600;2022-07-05T04:21:09;11.57;;;3.70;;
18881;SDS011;9573;50.948;11.600;2022-07-05T04:23:36;14.70;;;5.77;;
18881;SDS011;9573;50.948;11.600;2022-07-05T04:26:04;7.17;;;3.30;;
18881;SDS011;9573;50.948;11.600;2022-07-05T04:28:31;13.33;;;3.87;;
18881;SDS011;9573;50.948;11.600;2022-07-05T04:31:00;9.07;;;3.20;;
18881;SDS011;9573;50.948;11.600;2022-07-05T04:33:27;10.60;;;3.30;;
18881;SDS011;9573;50.948;11.600;2022-07-05T04:35:55;7.83;;;3.00;;
18881;SDS011;9573;50.948;11.600;2022-07-05T04:38:23;9.07;;;3.10;;
18881;SDS011;9573;50.948;11.600;2022-07-05T04:40:50;11.97;;;3.47;;
18881;SDS011;9573;50.948;11.600;2022-07-05T04:43:17;8.73;;;3.13;;
18881;SDS011;9573;50.948;11.600;2022-07-05T04:45:45;9.77;;;3.20;;
18881;SDS011;9573;50.948;11.600;2022-07-05T04:48:13;10.80;;;3.20;;
18881;SDS011;9573;50.948;11.600;2022-07-05T04:50:41;10.43;;;3.40;;
18881;SDS011;9573;50.948;11.600;2022-07-05T04:53:08;9.47;;;2.97;;
18881;SDS011;9573;50.948;11.600;2022-07-05T04:55:35;10.03;;;3.10;;
18881;SDS011;9573;50.948;11.600;2022-07-05T04:58:07;7.60;;;3.60;;
18881;SDS011;9573;50.948;11.600;2022-07-05T05:01:33;18.63;;;5.90;;
18881;SDS011;9573;50.948;11.600;2022-07-05T05:04:02;21.17;;;6.17;;
18881;SDS011;9573;50.948;11.600;2022-07-05T05:06:29;17.90;;;6.03;;
18881;SDS011;9573;50.948;11.600;2022-07-05T05:08:57;16.90;;;5.57;;
18881;SDS011;9573;50.948;11.600;2022-07-05T05:11:25;16.93;;;5.10;;
18881;SDS011;9573;50.948;11.600;2022-07-05T05:13:52;18.83;;;5.27;;
18881;SDS011;9573;50.948;11.600;2022-07-05T05:16:19;18.57;;;5.20;;
18881;SDS011;9573;50.948;11.600;2022-07-05T05:18:47;19.67;;;4.97;;
18881;SDS011;9573;50.948;11.600;2022-07-05T05:21:15;18.90;;;4.70;;
18881;SDS011;9573;50.948;11.600;2022-07-05T05:23:43;16.87;;;4.20;;
18881;SDS011;9573;50.948;11.600;2022-07-05T05:26:10;13.73;;;4.03;;
18881;SDS011;9573;50.948;11.600;2022-07-05T05:28:37;18.27;;;3.90;;
18881;SDS011;9573;50.948;11.600;2022-07-05T05:31:05;10.80;;;3.50;;
18881;SDS011;9573;50.948;11.600;2022-07-05T05:33:32;12.67;;;3.57;;
18881;SDS011;9573;50.948;11.600;2022-07-05T05:36:00;11.63;;;3.63;;
18881;SDS011;9573;50.948;11.600;2022-07-05T05:38:29;13.50;;;3.50;;
18881;SDS011;9573;50.948;11.600;2022-07-05T05:40:56;8.82;;;3.40;;
18881;SDS011;9573;50.948;11.600;2022-07-05T05:43:23;12.43;;;3.60;;
18881;SDS011;9573;50.948;11.600;2022-07-05T05:45:50;9.60;;;3.25;;
18881;SDS011;9573;50.948;11.600;2022-07-05T05:48:17;15.23;;;3.80;;
18881;SDS011;9573;50.948;11.600;2022-07-05T05:50:45;11.07;;;3.28;;
18881;SDS011;9573;50.948;11.600;2022-07-05T05:53:13;7.85;;;2.95;;
18881;SDS011;9573;50.948;11.600;2022-07-05T05:55:41;6.85;;;2.90;;
18881;SDS011;9573;50.948;11.600;2022-07-05T05:58:12;8.30;;;2.70;;
18881;SDS011;9573;50.948;11.600;2022-07-05T06:00:40;9.48;;;3.00;;
18881;SDS011;9573;50.948;11.600;2022-07-05T06:03:08;6.90;;;2.40;;
18881;SDS011;9573;50.948;11.600;2022-07-05T06:05:36;7.90;;;2.70;;
18881;SDS011;9573;50.948;11.600;2022-07-05T06:08:03;21.70;;;4.32;;
18881;SDS011;9573;50.948;11.600;2022-07-05T06:10:31;9.80;;;2.40;;
18881;SDS011;9573;50.948;11.600;2022-07-05T06:13:02;6.90;;;2.17;;
18881;SDS011;9573;50.948;11.600;2022-07-05T06:15:31;9.18;;;2.58;;
18881;SDS011;9573;50.948;11.600;2022-07-05T06:17:58;10.88;;;2.70;;
18881;SDS011;9573;50.948;11.600;2022-07-05T06:20:26;10.57;;;2.38;;
18881;SDS011;9573;50.948;11.600;2022-07-05T06:22:56;10.73;;;2.70;;
18881;SDS011;9573;50.948;11.600;2022-07-05T06:25:24;7.35;;;2.55;;
18881;SDS011;9573;50.948;11.600;2022-07-05T06:27:52;6.22;;;2.60;;
18881;SDS011;9573;50.948;11.600;2022-07-05T06:30:23;6.88;;;2.40;;
18881;SDS011;9573;50.948;11.600;2022-07-05T06:32:53;10.15;;;2.50;;
18881;SDS011;9573;50.948;11.600;2022-07-05T06:35:21;9.35;;;2.55;;
18881;SDS011;9573;50.948;11.600;2022-07-05T06:37:49;10.35;;;2.55;;
18881;SDS011;9573;50.948;11.600;2022-07-05T06:40:19;12.60;;;2.70;;
18881;SDS011;9573;50.948;11.600;2022-07-05T06:42:48;5.35;;;2.20;;
18881;SDS011;9573;50.948;11.600;2022-07-05T06:45:15;8.18;;;2.10;;
18881;SDS011;9573;50.948;11.600;2022-07-05T06:47:44;9.43;;;2.58;;
18881;SDS011;9573;50.948;11.600;2022-07-05T06:50:11;8.32;;;2.40;;
18881;SDS011;9573;50.948;11.600;2022-07-05T06:52:38;8.88;;;2.35;;
18881;SDS011;9573;50.948;11.600;2022-07-05T06:55:06;6.35;;;2.40;;
18881;SDS011;9573;50.948;11.600;2022-07-05T06:57:34;7.50;;;2.30;;
18881;SDS011;9573;50.948;11.600;2022-07-05T07:00:01;8.20;;;2.50;;
18881;SDS011;9573;50.948;11.600;2022-07-05T07:02:31;6.75;;;2.40;;
18881;SDS011;9573;50.948;11.600;2022-07-05T07:04:59;7.63;;;2.33;;
18881;SDS011;9573;50.948;11.600;2022-07-05T07:07:26;9.32;;;2.35;;
18881;SDS011;9573;50.948;11.600;2022-07-05T07:10:11;7.93;;;2.30;;
18881;SDS011;9573;50.948;11.600;2022-07-05T07:12:38;14.45;;;2.60;;
18881;SDS011;9573;50.948;11.600;2022-07-05T07:15:06;4.90;;;2.25;;
18881;SDS011;9573;50.948;11.600;2022-07-05T07:17:34;6.80;;;2.30;;
18881;SDS011;9573;50.948;11.600;2022-07-05T07:20:03;4.70;;;2.28;;
18881;SDS011;9573;50.948;11.600;2022-07-05T07:22:31;10.00;;;2.40;;
18881;SDS011;9573;50.948;11.600;2022-07-05T07:24:58;9.55;;;2.53;;
18881;SDS011;9573;50.948;11.600;2022-07-05T07:27:25;10.52;;;2.63;;
18881;SDS011;9573;50.948;11.600;2022-07-05T07:29:52;5.50;;;2.08;;
18881;SDS011;9573;50.948;11.600;2022-07-05T07:32:19;6.82;;;2.60;;
18881;SDS011;9573;50.948;11.600;2022-07-05T07:34:46;7.57;;;2.50;;
18881;SDS011;9573;50.948;11.600;2022-07-05T07:37:15;4.88;;;2.25;;
18881;SDS011;9573;50.948;11.600;2022-07-05T07:39:44;12.57;;;2.58;;
18881;SDS011;9573;50.948;11.600;2022-07-05T07:42:11;4.88;;;2.30;;
18881;SDS011;9573;50.948;11.600;2022-07-05T07:44:38;10.73;;;2.60;;
18881;SDS011;9573;50.948;11.600;2022-07-05T07:47:05;9.43;;;2.38;;
18881;SDS011;9573;50.948;11.600;2022-07-05T07:49:32;9.15;;;2.20;;
18881;SDS011;9573;50.948;11.600;2022-07-05T07:52:01;8.70;;;2.40;;
18881;SDS011;9573;50.948;11.600;2022-07-05T07:54:30;6.68;;;2.30;;
18881;SDS011;9573;50.948;11.600;2022-07-05T07:56:58;5.60;;;2.00;;
18881;SDS011;9573;50.948;11.600;2022-07-05T07:59:26;4.40;;;2.10;;
18881;SDS011;9573;50.948;11.600;2022-07-05T08:01:54;8.45;;;2.20;;
18881;SDS011;9573;50.948;11.600;2022-07-05T08:04:21;7.50;;;2.30;;
18881;SDS011;9573;50.948;11.600;2022-07-05T08:06:48;8.02;;;2.22;;
18881;SDS011;9573;50.948;11.600;2022-07-05T08:09:15;6.03;;;2.33;;
18881;SDS011;9573;50.948;11.600;2022-07-05T08:11:44;7.35;;;2.15;;
18881;SDS011;9573;50.948;11.600;2022-07-05T08:14:12;5.22;;;2.20;;
18881;SDS011;9573;50.948;11.600;2022-07-05T08:16:39;12.32;;;2.30;;
18881;SDS011;9573;50.948;11.600;2022-07-05T08:19:06;7.82;;;2.38;;
18881;SDS011;9573;50.948;11.600;2022-07-05T08:21:51;8.20;;;2.35;;
18881;SDS011;9573;50.948;11.600;2022-07-05T08:24:18;11.85;;;2.20;;
18881;SDS011;9573;50.948;11.600;2022-07-05T08:26:46;8.95;;;2.17;;
18881;SDS011;9573;50.948;11.600;2022-07-05T08:29:13;3.25;;;1.88;;
18881;SDS011;9573;50.948;11.600;2022-07-05T08:31:42;6.95;;;2.13;;
18881;SDS011;9573;50.948;11.600;2022-07-05T08:34:11;6.88;;;2.28;;
18881;SDS011;9573;50.948;11.600;2022-07-05T08:36:38;12.38;;;2.10;;
18881;SDS011;9573;50.948;11.600;2022-07-05T08:39:06;7.57;;;2.10;;
18881;SDS011;9573;50.948;11.600;2022-07-05T08:41:35;5.75;;;2.10;;
18881;SDS011;9573;50.948;11.600;2022-07-05T08:44:07;10.05;;;2.10;;
18881;SDS011;9573;50.948;11.600;2022-07-05T08:46:37;8.70;;;1.90;;
18881;SDS011;9573;50.948;11.600;2022-07-05T08:49:05;5.65;;;1.90;;
18881;SDS011;9573;50.948;11.600;2022-07-05T08:51:36;9.57;;;2.13;;
18881;SDS011;9573;50.948;11.600;2022-07-05T08:54:05;5.28;;;1.95;;
18881;SDS011;9573;50.948;11.600;2022-07-05T08:56:33;8.60;;;2.00;;
18881;SDS011;9573;50.948;11.600;2022-07-05T08:59:02;5.07;;;2.10;;
18881;SDS011;9573;50.948;11.600;2022-07-05T09:01:31;5.32;;;2.00;;
18881;SDS011;9573;50.948;11.600;2022-07-05T09:04:00;11.75;;;2.13;;
18881;SDS011;9573;50.948;11.600;2022-07-05T09:06:32;8.45;;;1.70;;
18881;SDS011;9573;50.948;11.600;2022-07-05T09:09:02;11.43;;;2.08;;
18881;SDS011;9573;50.948;11.600;2022-07-05T09:11:31;5.38;;;1.70;;
18881;SDS011;9573;50.948;11.600;2022-07-05T09:14:03;4.72;;;1.70;;
18881;SDS011;9573;50.948;11.600;2022-07-05T09:16:33;4.88;;;1.73;;
18881;SDS011;9573;50.948;11.600;2022-07-05T09:19:09;7.90;;;1.75;;
18881;SDS011;9573;50.948;11.600;2022-07-05T09:21:36;3.20;;;1.90;;
18881;SDS011;9573;50.948;11.600;2022-07-05T09:24:04;6.30;;;1.70;;
18881;SDS011;9573;50.948;11.600;2022-07-05T09:26:35;4.90;;;1.83;;
18881;SDS011;9573;50.948;11.600;2022-07-05T09:29:05;11.48;;;2.58;;
18881;SDS011;9573;50.948;11.600;2022-07-05T09:31:36;2.45;;;1.40;;
18881;SDS011;9573;50.948;11.600;2022-07-05T09:34:06;4.47;;;1.52;;
18881;SDS011;9573;50.948;11.600;2022-07-05T09:36:47;5.75;;;1.40;;
18881;SDS011;9573;50.948;11.600;2022-07-05T09:39:34;6.95;;;1.60;;
18881;SDS011;9573;50.948;11.600;2022-07-05T09:42:09;5.55;;;1.85;;
18881;SDS011;9573;50.948;11.600;2022-07-05T09:44:38;3.60;;;1.80;;
18881;SDS011;9573;50.948;11.600;2022-07-05T09:47:10;6.72;;;1.95;;
18881;SDS011;9573;50.948;11.600;2022-07-05T09:49:40;4.95;;;1.50;;
18881;SDS011;9573;50.948;11.600;2022-07-05T09:52:09;4.97;;;1.67;;
18881;SDS011;9573;50.948;11.600;2022-07-05T09:54:38;4.80;;;1.63;;
18881;SDS011;9573;50.948;11.600;2022-07-05T09:57:05;5.15;;;1.70;;
18881;SDS011;9573;50.948;11.600;2022-07-05T09:59:34;4.80;;;1.65;;
18881;SDS011;9573;50.948;11.600;2022-07-05T10:02:01;6.70;;;1.98;;
18881;SDS011;9573;50.948;11.600;2022-07-05T10:04:30;2.70;;;1.63;;
18881;SDS011;9573;50.948;11.600;2022-07-05T10:06:57;6.05;;;1.75;;
18881;SDS011;9573;50.948;11.600;2022-07-05T10:09:24;7.50;;;2.10;;
18881;SDS011;9573;50.948;11.600;2022-07-05T10:11:52;2.25;;;1.63;;
18881;SDS011;9573;50.948;11.600;2022-07-05T10:14:20;5.22;;;1.60;;
18881;SDS011;9573;50.948;11.600;2022-07-05T10:16:59;5.93;;;1.67;;
18881;SDS011;9573;50.948;11.600;2022-07-05T10:19:29;4.78;;;1.85;;
18881;SDS011;9573;50.948;11.600;2022-07-05T10:22:04;3.13;;;1.60;;
18881;SDS011;9573;50.948;11.600;2022-07-05T10:24:33;5.80;;;1.63;;
18881;SDS011;9573;50.948;11.600;2022-07-05T10:27:04;4.78;;;1.70;;
18881;SDS011;9573;50.948;11.600;2022-07-05T10:29:34;7.43;;;2.38;;
18881;SDS011;9573;50.948;11.600;2022-07-05T10:32:03;4.25;;;2.00;;
18881;SDS011;9573;50.948;11.600;2022-07-05T10:34:36;6.45;;;1.92;;
18881;SDS011;9573;50.948;11.600;2022-07-05T10:37:06;3.40;;;1.67;;
18881;SDS011;9573;50.948;11.600;2022-07-05T10:39:34;4.80;;;1.65;;
18881;SDS011;9573;50.948;11.600;2022-07-05T10:42:02;6.18;;;1.40;;
18881;SDS011;9573;50.948;11.600;2022-07-05T10:44:32;2.35;;;1.40;;
18881;SDS011;9573;50.948;11.600;2022-07-05T10:47:07;6.28;;;1.55;;
18881;SDS011;9573;50.948;11.600;2022-07-05T10:49:38;6.00;;;1.77;;
18881;SDS011;9573;50.948;11.600;2022-07-05T10:52:20;3.60;;;1.50;;
18881;SDS011;9573;50.948;11.600;2022-07-05T11:00:48;5.80;;;1.95;;
18881;SDS011;9573;50.948;11.600;2022-07-05T11:04:15;7.75;;;1.80;;
18881;SDS011;9573;50.948;11.600;2022-07-05T11:06:59;3.50;;;1.40;;
18881;SDS011;9573;50.948;11.600;2022-07-05T11:09:26;15.82;;;2.20;;
18881;SDS011;9573;50.948;11.600;2022-07-05T11:12:02;4.57;;;1.60;;
18881;SDS011;9573;50.948;11.600;2022-07-05T11:14:38;5.78;;;1.77;;
18881;SDS011;9573;50.948;11.600;2022-07-05T11:20:06;5.32;;;1.83;;
18881;SDS011;9573;50.948;11.600;2022-07-05T11:23:09;4.25;;;1.60;;
18881;SDS011;9573;50.948;11.600;2022-07-05T11:25:38;9.35;;;3.72;;
18881;SDS011;9573;50.948;11.600;2022-07-05T11:28:13;5.38;;;1.70;;
18881;SDS011;9573;50.948;11.600;2022-07-05T11:30:49;7.55;;;2.08;;
18881;SDS011;9573;50.948;11.600;2022-07-05T11:33:34;6.03;;;1.75;;
18881;SDS011;9573;50.948;11.600;2022-07-05T11:36:19;12.13;;;2.00;;
18881;SDS011;9573;50.948;11.600;2022-07-05T11:39:11;7.93;;;1.70;;
18881;SDS011;9573;50.948;11.600;2022-07-05T11:41:42;3.95;;;1.60;;
18881;SDS011;9573;50.948;11.600;2022-07-05T11:44:11;4.60;;;2.03;;
18881;SDS011;9573;50.948;11.600;2022-07-05T11:46:40;2.45;;;1.38;;
18881;SDS011;9573;50.948;11.600;2022-07-05T11:49:08;7.68;;;1.83;;
18881;SDS011;9573;50.948;11.600;2022-07-05T11:51:36;3.80;;;1.42;;
18881;SDS011;9573;50.948;11.600;2022-07-05T11:54:03;5.10;;;1.52;;
18881;SDS011;9573;50.948;11.600;2022-07-05T11:56:32;5.13;;;1.70;;
18881;SDS011;9573;50.948;11.600;2022-07-05T11:59:07;7.50;;;1.80;;
18881;SDS011;9573;50.948;11.600;2022-07-05T12:01:44;3.67;;;1.70;;
18881;SDS011;9573;50.948;11.600;2022-07-05T12:04:12;5.93;;;1.70;;
18881;SDS011;9573;50.948;11.600;2022-07-05T12:06:48;6.60;;;1.85;;
18881;SDS011;9573;50.948;11.600;2022-07-05T12:09:21;11.18;;;2.00;;
18881;SDS011;9573;50.948;11.600;2022-07-05T12:11:51;11.15;;;2.10;;
18881;SDS011;9573;50.948;11.600;2022-07-05T12:14:37;5.45;;;1.60;;
18881;SDS011;9573;50.948;11.600;2022-07-05T12:17:14;7.00;;;2.10;;
18881;SDS011;9573;50.948;11.600;2022-07-05T12:19:42;6.93;;;1.80;;
18881;SDS011;9573;50.948;11.600;2022-07-05T12:22:14;5.68;;;1.63;;
18881;SDS011;9573;50.948;11.600;2022-07-05T12:24:44;8.20;;;1.90;;
18881;SDS011;9573;50.948;11.600;2022-07-05T12:27:12;9.70;;;1.70;;
18881;SDS011;9573;50.948;11.600;2022-07-05T12:29:40;5.40;;;1.63;;
18881;SDS011;9573;50.948;11.600;2022-07-05T12:32:07;5.63;;;1.65;;
18881;SDS011;9573;50.948;11.600;2022-07-05T12:34:34;5.05;;;1.40;;
18881;SDS011;9573;50.948;11.600;2022-07-05T12:37:02;5.22;;;1.92;;
18881;SDS011;9573;50.948;11.600;2022-07-05T12:39:32;4.80;;;1.80;;
18881;SDS011;9573;50.948;11.600;2022-07-05T12:42:01;4.03;;;1.70;;
18881;SDS011;9573;50.948;11.600;2022-07-05T12:44:29;2.17;;;1.40;;
18881;SDS011;9573;50.948;11.600;2022-07-05T12:47:02;7.03;;;1.92;;
18881;SDS011;9573;50.948;11.600;2022-07-05T12:49:30;6.60;;;1.80;;
18881;SDS011;9573;50.948;11.600;2022-07-05T12:52:02;2.90;;;1.70;;
18881;SDS011;9573;50.948;11.600;2022-07-05T12:54:30;3.65;;;1.80;;
18881;SDS011;9573;50.948;11.600;2022-07-05T12:57:15;6.97;;;1.85;;
18881;SDS011;9573;50.948;11.600;2022-07-05T13:00:03;4.82;;;1.63;;
18881;SDS011;9573;50.948;11.600;2022-07-05T13:02:37;3.13;;;1.42;;
18881;SDS011;9573;50.948;11.600;2022-07-05T13:05:05;10.82;;;2.08;;
18881;SDS011;9573;50.948;11.600;2022-07-05T13:07:42;4.50;;;1.60;;
18881;SDS011;9573;50.948;11.600;2022-07-05T13:10:13;6.40;;;1.98;;
18881;SDS011;9573;50.948;11.600;2022-07-05T13:12:43;5.00;;;1.88;;
18881;SDS011;9573;50.948;11.600;2022-07-05T13:15:11;6.97;;;1.95;;
18881;SDS011;9573;50.948;11.600;2022-07-05T13:17:39;11.32;;;5.00;;
18881;SDS011;9573;50.948;11.600;2022-07-05T13:20:08;5.72;;;1.88;;
18881;SDS011;9573;50.948;11.600;2022-07-05T13:22:37;15.07;;;2.78;;
18881;SDS011;9573;50.948;11.600;2022-07-05T13:25:04;3.05;;;1.75;;
18881;SDS011;9573;50.948;11.600;2022-07-05T13:27:32;11.70;;;2.38;;
18881;SDS011;9573;50.948;11.600;2022-07-05T13:30:01;6.63;;;2.10;;
18881;SDS011;9573;50.948;11.600;2022-07-05T13:32:34;6.25;;;2.00;;
18881;SDS011;9573;50.948;11.600;2022-07-05T13:35:02;13.23;;;2.45;;
18881;SDS011;9573;50.948;11.600;2022-07-05T13:37:29;5.88;;;1.92;;
18881;SDS011;9573;50.948;11.600;2022-07-05T13:39:56;3.35;;;1.60;;
18881;SDS011;9573;50.948;11.600;2022-07-05T13:42:24;7.65;;;1.75;;
18881;SDS011;9573;50.948;11.600;2022-07-05T13:44:51;4.72;;;2.08;;
18881;SDS011;9573;50.948;11.600;2022-07-05T13:47:18;6.93;;;2.08;;
18881;SDS011;9573;50.948;11.600;2022-07-05T13:49:47;6.32;;;1.90;;
18881;SDS011;9573;50.948;11.600;2022-07-05T13:52:34;4.13;;;1.90;;
18881;SDS011;9573;50.948;11.600;2022-07-05T13:55:02;3.28;;;1.70;;
18881;SDS011;9573;50.948;11.600;2022-07-05T13:57:32;3.25;;;1.70;;
18881;SDS011;9573;50.948;11.600;2022-07-05T14:00:00;9.40;;;2.50;;
18881;SDS011;9573;50.948;11.600;2022-07-05T14:02:27;3.95;;;1.88;;
18881;SDS011;9573;50.948;11.600;2022-07-05T14:04:56;4.20;;;1.98;;
18881;SDS011;9573;50.948;11.600;2022-07-05T14:07:23;3.00;;;1.75;;
18881;SDS011;9573;50.948;11.600;2022-07-05T14:09:52;3.95;;;1.90;;
18881;SDS011;9573;50.948;11.600;2022-07-05T14:12:19;8.45;;;1.95;;
18881;SDS011;9573;50.948;11.600;2022-07-05T14:14:52;6.20;;;2.00;;
18881;SDS011;9573;50.948;11.600;2022-07-05T14:17:19;4.70;;;1.90;;
18881;SDS011;9573;50.948;11.600;2022-07-05T14:19:46;7.90;;;2.00;;
18881;SDS011;9573;50.948;11.600;2022-07-05T14:22:15;7.78;;;1.70;;
18881;SDS011;9573;50.948;11.600;2022-07-05T14:24:42;5.03;;;1.90;;
18881;SDS011;9573;50.948;11.600;2022-07-05T14:27:09;7.20;;;2.55;;
18881;SDS011;9573;50.948;11.600;2022-07-05T14:29:36;9.57;;;2.38;;
18881;SDS011;9573;50.948;11.600;2022-07-05T14:32:04;7.25;;;2.10;;
18881;SDS011;9573;50.948;11.600;2022-07-05T14:34:32;5.32;;;2.10;;
18881;SDS011;9573;50.948;11.600;2022-07-05T14:37:00;5.68;;;2.20;;
18881;SDS011;9573;50.948;11.600;2022-07-05T14:39:28;6.65;;;2.38;;
18881;SDS011;9573;50.948;11.600;2022-07-05T14:41:55;11.02;;;2.65;;
18881;SDS011;9573;50.948;11.600;2022-07-05T14:44:22;5.70;;;2.08;;
18881;SDS011;9573;50.948;11.600;2022-07-05T14:46:49;5.15;;;2.25;;
18881;SDS011;9573;50.948;11.600;2022-07-05T14:49:17;7.28;;;1.98;;
18881;SDS011;9573;50.948;11.600;2022-07-05T14:51:44;6.68;;;2.50;;
18881;SDS011;9573;50.948;11.600;2022-07-05T14:54:11;6.03;;;2.20;;
18881;SDS011;9573;50.948;11.600;2022-07-05T14:56:40;5.68;;;1.80;;
18881;SDS011;9573;50.948;11.600;2022-07-05T14:59:07;7.22;;;2.00;;
18881;SDS011;9573;50.948;11.600;2022-07-05T15:01:35;6.80;;;2.08;;
18881;SDS011;9573;50.948;11.600;2022-07-05T15:04:02;7.13;;;2.10;;
18881;SDS011;9573;50.948;11.600;2022-07-05T15:06:29;7.25;;;2.30;;
18881;SDS011;9573;50.948;11.600;2022-07-05T15:08:57;5.43;;;2.20;;